Time;durP1;ratioP1;P1;durP2;ratioP2;P2;SDS_P1;SDS_P2;PMS_P1;PMS_P2;Temp;Humidity;BMP_temperature;BMP_pressure;BME280_temperature;BME280_humidity;BME280_pressure;Samples;Min_cycle;Max_cycle;Signal;HPM_P1;HPM_P2
2024/01/24 00:00:14;;;;;;;75.28;15.50;;;;;;;6.74;100.00;100746.44;5023466;28;20451;-83
2024/01/24 00:02:41;;;;;;;76.30;14.45;;;;;;;6.77;100.00;100748.06;5033069;28;20740;-82
2024/01/24 00:05:08;;;;;;;92.70;15.50;;;;;;;6.77;100.00;100721.66;5033787;28;20121;-83
2024/01/24 00:07:35;;;;;;;57.72;10.90;;;;;;;6.76;100.00;100712.91;5022819;28;20434;-83
2024/01/24 00:10:02;;;;;;;104.82;14.90;;;;;;;6.79;100.00;100704.78;5046841;28;20051;-83
2024/01/24 00:12:29;;;;;;;78.40;10.75;;;;;;;6.82;100.00;100706.41;5045612;28;20037;-82
2024/01/24 00:14:56;;;;;;;105.15;14.32;;;;;;;6.84;100.00;100696.63;4998313;28;20045;-82
2024/01/24 00:17:23;;;;;;;71.07;10.70;;;;;;;6.88;100.00;100677.03;5022897;28;20040;-82
2024/01/24 00:19:50;;;;;;;40.20;6.10;;;;;;;6.91;100.00;100677.69;5015825;28;20385;-82
2024/01/24 00:22:16;;;;;;;40.30;5.13;;;;;;;6.94;100.00;100681.94;5031520;28;20511;-82
2024/01/24 00:24:43;;;;;;;32.85;4.05;;;;;;;6.96;100.00;100669.50;5009001;28;20401;-82
2024/01/24 00:27:11;;;;;;;34.17;4.95;;;;;;;6.96;100.00;100659.78;5032579;28;20037;-82
2024/01/24 00:29:38;;;;;;;34.80;3.92;;;;;;;6.99;100.00;100660.53;5035173;28;20068;-82
2024/01/24 00:32:05;;;;;;;34.50;6.00;;;;;;;7.04;100.00;100663.75;5006946;28;20041;-82
2024/01/24 00:34:32;;;;;;;36.47;6.00;;;;;;;6.98;100.00;100672.06;5035218;28;20048;-82
2024/01/24 00:36:58;;;;;;;46.83;7.70;;;;;;;7.00;100.00;100659.59;5024027;28;20510;-82
2024/01/24 00:39:25;;;;;;;72.20;8.82;;;;;;;7.01;100.00;100659.50;5026001;28;20053;-82
2024/01/24 00:41:53;;;;;;;34.60;6.70;;;;;;;7.01;100.00;100656.84;5009024;28;20492;-82
2024/01/24 00:44:19;;;;;;;30.33;5.05;;;;;;;7.02;100.00;100653.28;5018825;28;20626;-82
2024/01/24 00:46:46;;;;;;;26.02;5.60;;;;;;;7.03;100.00;100647.06;5032806;28;20132;-82
2024/01/24 00:49:13;;;;;;;61.10;11.48;;;;;;;7.05;100.00;100661.03;5049039;28;20045;-82
2024/01/24 00:51:40;;;;;;;45.10;7.25;;;;;;;7.07;100.00;100645.94;5029903;28;20555;-82
2024/01/24 00:54:07;;;;;;;31.70;5.75;;;;;;;7.08;100.00;100644.97;5032232;28;20041;-82
2024/01/24 00:56:34;;;;;;;29.67;5.65;;;;;;;7.08;100.00;100644.97;5063401;28;20049;-82
2024/01/24 00:59:00;;;;;;;30.25;4.97;;;;;;;7.08;100.00;100642.34;5046714;28;20051;-82
2024/01/24 01:01:27;;;;;;;31.90;4.55;;;;;;;7.14;100.00;100646.41;5005840;28;20712;-82
2024/01/24 01:03:54;;;;;;;15.95;5.40;;;;;;;7.16;100.00;100650.63;5004686;28;20549;-82
2024/01/24 01:06:22;;;;;;;18.05;3.03;;;;;;;7.17;100.00;100633.88;5035362;28;20461;-83
2024/01/24 01:08:49;;;;;;;28.83;4.18;;;;;;;7.20;100.00;100629.31;5045810;28;20068;-82
2024/01/24 01:11:17;;;;;;;23.40;3.42;;;;;;;7.21;100.00;100628.38;5036884;28;20155;-82
2024/01/24 01:13:44;;;;;;;19.25;4.22;;;;;;;7.21;100.00;100620.47;5020297;28;20044;-82
2024/01/24 01:16:10;;;;;;;20.92;3.78;;;;;;;7.23;100.00;100622.06;5030078;28;20399;-82
2024/01/24 01:18:37;;;;;;;16.65;3.13;;;;;;;7.26;100.00;100635.09;5033154;28;20051;-82
2024/01/24 01:21:04;;;;;;;33.67;4.45;;;;;;;7.24;100.00;100625.56;5045946;28;20041;-82
2024/01/24 01:23:31;;;;;;;14.45;2.83;;;;;;;7.26;100.00;100619.22;5041764;28;20053;-82
2024/01/24 01:25:58;;;;;;;11.95;2.65;;;;;;;7.28;100.00;100625.28;5037376;28;20121;-82
2024/01/24 01:28:24;;;;;;;10.55;2.55;;;;;;;7.29;100.00;100624.31;5035727;28;20041;-82
2024/01/24 01:30:51;;;;;;;16.73;2.50;;;;;;;7.29;100.00;100621.69;5048068;28;20500;-82
2024/01/24 01:33:18;;;;;;;20.58;3.72;;;;;;;7.30;100.00;100615.47;5036042;28;20041;-82
2024/01/24 01:35:46;;;;;;;31.63;3.40;;;;;;;7.31;100.00;100617.16;5035847;28;20119;-82
2024/01/24 01:38:14;;;;;;;15.00;2.30;;;;;;;7.33;100.00;100622.34;5031065;28;20492;-82
2024/01/24 01:40:41;;;;;;;7.97;2.45;;;;;;;7.35;100.00;100631.00;5037730;28;20125;-82
2024/01/24 01:43:14;;;;;;;10.98;1.73;;;;;;;7.36;100.00;100620.34;5067245;28;20079;-82
2024/01/24 01:45:42;;;;;;;14.52;2.70;;;;;;;7.38;100.00;100625.56;5009396;28;20500;-82
2024/01/24 01:48:10;;;;;;;12.70;2.80;;;;;;;7.38;100.00;100620.28;5005459;28;20050;-82
2024/01/24 01:50:38;;;;;;;28.90;3.22;;;;;;;7.41;100.00;100616.59;5036487;28;20737;-82
2024/01/24 01:53:05;;;;;;;13.80;2.75;;;;;;;7.43;100.00;100628.75;5022891;28;20047;-82
2024/01/24 01:55:33;;;;;;;14.95;3.25;;;;;;;7.46;100.00;100625.06;5049527;28;20055;-81
2024/01/24 01:58:00;;;;;;;14.20;2.80;;;;;;;7.50;100.00;100626.56;5034992;28;20107;-81
2024/01/24 02:00:27;;;;;;;13.18;3.42;;;;;;;7.51;100.00;100626.47;5029911;28;20072;-82
2024/01/24 02:02:54;;;;;;;20.30;3.10;;;;;;;7.52;100.00;100628.16;5050414;28;20071;-82
2024/01/24 02:05:21;;;;;;;17.85;2.55;;;;;;;7.54;100.00;100626.28;5036173;28;20060;-82
2024/01/24 02:07:48;;;;;;;14.32;2.05;;;;;;;7.56;100.00;100602.41;5051111;28;20102;-82
2024/01/24 02:10:15;;;;;;;19.65;2.92;;;;;;;7.58;100.00;100614.56;5051426;28;20042;-82
2024/01/24 02:12:42;;;;;;;28.00;3.40;;;;;;;7.58;100.00;100604.00;5016027;28;20045;-82
2024/01/24 02:15:09;;;;;;;16.38;2.58;;;;;;;7.57;100.00;100607.56;5033768;28;20041;-82
2024/01/24 02:17:36;;;;;;;17.55;2.67;;;;;;;7.60;100.00;100604.72;5024663;28;20063;-82
2024/01/24 02:20:05;;;;;;;13.55;2.58;;;;;;;7.64;100.00;100594.00;5052898;28;20780;-82
2024/01/24 02:22:32;;;;;;;15.35;2.58;;;;;;;7.66;100.00;100582.38;5047732;28;20692;-82
2024/01/24 02:24:59;;;;;;;25.60;3.25;;;;;;;7.73;100.00;100594.22;5053566;28;20060;-82
2024/01/24 02:27:26;;;;;;;15.02;2.78;;;;;;;7.70;100.00;100581.19;5036914;28;20489;-82
2024/01/24 02:29:57;;;;;;;11.00;2.65;;;;;;;7.77;100.00;100573.75;5052102;28;20041;-81
2024/01/24 02:32:23;;;;;;;8.65;3.13;;;;;;;7.80;100.00;100581.47;5033355;28;20061;-82
2024/01/24 02:34:50;;;;;;;17.27;2.00;;;;;;;7.80;100.00;100574.38;5054949;28;20053;-82
2024/01/24 02:37:19;;;;;;;9.65;2.50;;;;;;;7.79;100.00;100572.69;5049684;28;20405;-82
2024/01/24 02:39:47;;;;;;;8.65;1.90;;;;;;;7.81;100.00;100578.72;5022064;28;20048;-82
2024/01/24 02:42:14;;;;;;;27.45;4.75;;;;;;;7.79;100.00;100572.69;5035706;28;20132;-82
2024/01/24 02:44:41;;;;;;;13.10;2.63;;;;;;;7.82;100.00;100582.22;5034164;28;20052;-83
2024/01/24 02:47:07;;;;;;;28.33;3.40;;;;;;;7.83;100.00;100575.97;5053007;28;20052;-82
2024/01/24 02:49:34;;;;;;;16.63;2.40;;;;;;;7.84;100.00;100569.75;5019415;28;20057;-82
2024/01/24 02:52:02;;;;;;;9.30;1.92;;;;;;;7.85;100.00;100552.94;5052824;28;20056;-82
2024/01/24 02:54:28;;;;;;;10.00;2.00;;;;;;;7.85;100.00;100538.88;5051644;28;20051;-82
2024/01/24 02:56:55;;;;;;;9.55;1.85;;;;;;;7.88;100.00;100550.06;4992479;28;20417;-82
2024/01/24 02:59:22;;;;;;;17.77;2.63;;;;;;;7.88;100.00;100546.59;5008568;28;20404;-82
2024/01/24 03:01:49;;;;;;;17.42;3.78;;;;;;;7.89;100.00;100556.22;5066875;28;20049;-82
2024/01/24 03:04:15;;;;;;;10.07;2.13;;;;;;;7.90;100.00;100531.47;5056599;28;20115;-81
2024/01/24 03:06:43;;;;;;;11.23;2.95;;;;;;;7.91;100.00;100536.69;5036770;28;20063;-82
2024/01/24 03:09:09;;;;;;;16.65;2.97;;;;;;;7.91;100.00;100535.81;5033078;28;20132;-82
2024/01/24 03:11:37;;;;;;;13.38;2.35;;;;;;;7.93;100.00;100531.25;5038019;28;20558;-82
2024/01/24 03:14:04;;;;;;;7.32;2.20;;;;;;;7.92;100.00;100550.75;5033468;28;20128;-82
2024/01/24 03:16:31;;;;;;;12.70;2.42;;;;;;;7.94;100.00;100559.44;5054654;28;20450;-82
2024/01/24 03:18:58;;;;;;;12.57;2.25;;;;;;;7.94;100.00;100547.03;5048137;28;20045;-81
2024/01/24 03:21:25;;;;;;;14.93;2.65;;;;;;;7.93;100.00;100541.84;5032788;28;20042;-82
2024/01/24 03:23:51;;;;;;;10.85;2.28;;;;;;;7.97;100.00;100538.06;5035398;28;20132;-82
2024/01/24 03:26:18;;;;;;;8.35;2.38;;;;;;;7.99;100.00;100558.16;5011343;28;20033;-82
2024/01/24 03:28:45;;;;;;;13.35;2.40;;;;;;;7.99;100.00;100559.97;5015933;28;20064;-82
2024/01/24 03:31:12;;;;;;;29.80;3.25;;;;;;;8.00;100.00;100541.34;5033300;28;20119;-81
2024/01/24 03:33:39;;;;;;;20.95;2.78;;;;;;;8.02;100.00;100549.19;5038041;28;20067;-81
2024/01/24 03:36:06;;;;;;;16.20;4.40;;;;;;;8.06;100.00;100555.94;5036994;28;20054;-81
2024/01/24 03:38:34;;;;;;;10.23;2.25;;;;;;;8.05;100.00;100535.75;5040528;28;20055;-82
2024/01/24 03:41:01;;;;;;;13.82;2.28;;;;;;;8.06;100.00;100532.13;5048705;28;20498;-81
2024/01/24 03:43:27;;;;;;;15.93;2.78;;;;;;;8.07;100.00;100533.84;5032105;28;20131;-81
2024/01/24 03:45:54;;;;;;;12.80;2.17;;;;;;;8.07;100.00;100540.94;5006337;28;20053;-82
2024/01/24 03:48:21;;;;;;;9.05;2.10;;;;;;;8.08;100.00;100547.91;5029999;28;20040;-81
2024/01/24 03:50:48;;;;;;;14.05;3.35;;;;;;;8.11;100.00;100560.94;5020107;28;20077;-81
2024/01/24 03:53:15;;;;;;;13.43;2.30;;;;;;;8.12;100.00;100544.13;5029856;28;20481;-81
2024/01/24 03:55:41;;;;;;;13.82;3.53;;;;;;;8.14;100.00;100545.72;5047852;28;20052;-81
2024/01/24 03:58:08;;;;;;;15.00;2.42;;;;;;;8.15;100.00;100570.38;5000141;28;20717;-81
2024/01/24 04:00:35;;;;;;;8.80;2.08;;;;;;;8.17;100.00;100564.03;5040240;28;20524;-82
2024/01/24 04:03:02;;;;;;;9.02;2.13;;;;;;;8.16;100.00;100551.72;5046085;28;20717;-81
2024/01/24 04:05:29;;;;;;;11.15;3.22;;;;;;;8.17;100.00;100560.53;5061002;28;20060;-81
2024/01/24 04:07:56;;;;;;;10.07;2.03;;;;;;;8.17;100.00;100573.78;5014314;28;20041;-81
2024/01/24 04:10:23;;;;;;;16.63;2.20;;;;;;;8.20;100.00;100569.09;5027734;28;20046;-81
2024/01/24 04:12:50;;;;;;;8.82;2.17;;;;;;;8.22;100.00;100571.66;5032967;28;20123;-81
2024/01/24 04:15:17;;;;;;;10.55;2.35;;;;;;;8.23;100.00;100576.00;5033857;28;20041;-81
2024/01/24 04:17:43;;;;;;;11.05;2.75;;;;;;;8.24;100.00;100561.81;5030924;28;20053;-81
2024/01/24 04:20:10;;;;;;;14.35;2.22;;;;;;;8.25;100.00;100548.47;5029228;28;20049;-81
2024/01/24 04:22:37;;;;;;;10.55;1.92;;;;;;;8.25;100.00;100542.34;5031547;28;20052;-81
2024/01/24 04:25:04;;;;;;;12.32;2.70;;;;;;;8.29;100.00;100550.91;5003935;28;20063;-81
2024/01/24 04:27:31;;;;;;;8.35;1.80;;;;;;;8.29;100.00;100525.28;5022214;28;20041;-81
2024/01/24 04:29:58;;;;;;;9.73;1.67;;;;;;;8.29;100.00;100522.66;4992282;28;20128;-81
2024/01/24 04:32:24;;;;;;;16.63;2.70;;;;;;;8.31;100.00;100527.84;5020302;28;20081;-81
2024/01/24 04:34:51;;;;;;;14.00;2.40;;;;;;;8.34;100.00;100519.69;5022972;28;20045;-81
2024/01/24 04:37:22;;;;;;;8.63;1.60;;;;;;;8.33;100.00;100515.38;5031961;28;20044;-81
2024/01/24 04:39:49;;;;;;;13.25;1.98;;;;;;;8.37;100.00;100509.78;5029578;28;20041;-81
2024/01/24 04:42:16;;;;;;;9.57;2.67;;;;;;;8.37;100.00;100514.19;5033478;28;20053;-81
2024/01/24 04:44:43;;;;;;;14.90;2.05;;;;;;;8.36;100.00;100505.41;5030791;28;20057;-81
2024/01/24 04:47:13;;;;;;;19.95;2.33;;;;;;;8.38;100.00;100506.16;5032421;28;20037;-81
2024/01/24 04:49:40;;;;;;;10.75;2.28;;;;;;;8.45;100.00;100477.50;5030027;28;20552;-81
2024/01/24 04:52:12;;;;;;;10.18;1.98;;;;;;;8.46;100.00;100460.66;5031760;28;20037;-81
2024/01/24 04:54:38;;;;;;;8.18;2.63;;;;;;;8.46;100.00;100458.88;5030507;28;20046;-82
2024/01/24 04:57:05;;;;;;;13.52;2.30;;;;;;;8.46;100.00;100447.44;5063581;28;20107;-81
2024/01/24 04:59:32;;;;;;;16.02;2.88;;;;;;;8.46;100.00;100458.88;5017753;28;20148;-81
2024/01/24 05:02:15;;;;;;;13.52;2.67;;;;;;;8.46;100.00;100445.63;5035016;28;20040;-81
2024/01/24 05:04:42;;;;;;;8.63;2.10;;;;;;;8.47;100.00;100438.53;5012225;28;20128;-81
2024/01/24 05:07:08;;;;;;;10.02;2.30;;;;;;;8.46;100.00;100461.50;5038743;28;20564;-81
2024/01/24 05:09:35;;;;;;;9.05;2.28;;;;;;;8.51;100.00;100432.09;5029437;28;20057;-81
2024/01/24 05:12:02;;;;;;;10.50;2.10;;;;;;;8.55;100.00;100424.75;5062279;28;20091;-81
2024/01/24 05:14:29;;;;;;;12.00;2.22;;;;;;;8.54;100.00;100441.59;5011479;28;20083;-82
2024/01/24 05:16:56;;;;;;;10.73;2.10;;;;;;;8.56;100.00;100460.88;5017710;28;20050;-81
2024/01/24 05:19:23;;;;;;;3.85;2.00;;;;;;;8.56;100.00;100453.78;5032213;28;20045;-81
2024/01/24 05:21:49;;;;;;;8.75;2.30;;;;;;;8.56;100.00;100447.63;5047664;28;20588;-82
2024/01/24 05:24:16;;;;;;;6.00;1.70;;;;;;;8.59;100.00;100465.94;5046309;28;20056;-82
2024/01/24 05:26:46;;;;;;;10.18;2.13;;;;;;;8.61;100.00;100454.31;5018375;28;20696;-81
2024/01/24 05:29:13;;;;;;;8.25;1.90;;;;;;;8.63;100.00;100456.84;5047024;28;20064;-81
2024/01/24 05:31:40;;;;;;;13.52;2.25;;;;;;;8.63;100.00;100483.31;5017243;28;20082;-82
2024/01/24 05:34:08;;;;;;;12.82;2.28;;;;;;;8.65;100.00;100469.03;5016951;28;20566;-81
2024/01/24 05:36:35;;;;;;;13.05;2.00;;;;;;;8.63;100.00;100467.44;5020646;28;20048;-81
2024/01/24 05:39:06;;;;;;;7.30;2.20;;;;;;;8.67;100.00;100482.97;5032657;28;20440;-81
2024/01/24 05:41:34;;;;;;;13.05;2.47;;;;;;;8.69;100.00;100477.59;5044075;28;20041;-81
2024/01/24 05:44:01;;;;;;;13.05;2.25;;;;;;;8.71;100.00;100465.09;5027560;28;20073;-81
2024/01/24 05:46:28;;;;;;;8.40;1.92;;;;;;;8.74;100.00;100462.22;5028134;28;20065;-81
2024/01/24 05:48:55;;;;;;;9.00;2.05;;;;;;;8.75;100.00;100461.28;5052742;28;20048;-81
2024/01/24 05:51:22;;;;;;;14.95;2.53;;;;;;;8.79;100.00;100453.97;5045272;28;20053;-81
2024/01/24 05:53:49;;;;;;;9.35;2.40;;;;;;;8.77;100.00;100448.75;5031172;28;20408;-81
2024/01/24 05:56:16;;;;;;;8.50;2.03;;;;;;;8.78;100.00;100431.94;5030089;28;20041;-81
2024/01/24 05:58:42;;;;;;;10.02;2.03;;;;;;;8.79;100.00;100433.63;5058090;28;20095;-82
2024/01/24 06:01:10;;;;;;;9.02;2.30;;;;;;;8.83;100.00;100437.75;5015637;28;20566;-81
2024/01/24 06:03:37;;;;;;;11.32;3.33;;;;;;;8.85;100.00;100443.78;5060223;28;20049;-82
2024/01/24 06:06:04;;;;;;;9.65;2.03;;;;;;;8.87;100.00;100430.41;5042157;28;20056;-82
2024/01/24 06:08:31;;;;;;;5.85;1.77;;;;;;;8.90;100.00;100417.81;5013196;28;20112;-81
2024/01/24 06:10:58;;;;;;;11.50;2.35;;;;;;;8.92;100.00;100430.94;5024330;28;20102;-82
2024/01/24 06:13:25;;;;;;;9.43;1.80;;;;;;;8.92;100.00;100436.22;5032567;28;20037;-81
2024/01/24 06:15:52;;;;;;;6.72;2.20;;;;;;;8.93;100.00;100423.81;5028386;28;20048;-82
2024/01/24 06:18:19;;;;;;;12.60;2.13;;;;;;;8.95;100.00;100411.31;5040005;28;20095;-82
2024/01/24 06:20:47;;;;;;;7.20;2.28;;;;;;;8.96;100.00;100407.75;5030353;28;20045;-81
2024/01/24 06:23:14;;;;;;;6.55;2.13;;;;;;;8.97;100.00;100414.72;5017036;28;20496;-82
2024/01/24 06:25:41;;;;;;;6.60;1.40;;;;;;;8.97;100.00;100393.53;5016037;28;20123;-81
2024/01/24 06:28:08;;;;;;;7.20;2.08;;;;;;;8.96;100.00;100403.28;5039723;28;20492;-82
2024/01/24 06:30:35;;;;;;;8.68;2.17;;;;;;;9.00;100.00;100385.34;5031785;28;20133;-81
2024/01/24 06:33:01;;;;;;;7.97;1.83;;;;;;;9.01;100.00;100379.09;5027772;28;20052;-83
2024/01/24 06:35:29;;;;;;;11.65;2.10;;;;;;;8.97;100.00;100377.63;5030334;28;20655;-82
2024/01/24 06:37:56;;;;;;;14.27;3.03;;;;;;;9.00;100.00;100372.09;5012241;28;20128;-84
2024/01/24 06:40:22;;;;;;;23.90;3.90;;;;;;;9.02;100.00;100380.78;5062306;28;20037;-83
2024/01/24 06:42:50;;;;;;;7.57;1.63;;;;;;;9.05;100.00;100399.09;5031443;28;20061;-82
2024/01/24 06:45:17;;;;;;;6.30;1.60;;;;;;;9.03;100.00;100409.81;5049385;28;20061;-83
2024/01/24 06:47:45;;;;;;;5.63;1.55;;;;;;;9.04;100.00;100422.09;5022137;28;20116;-84
2024/01/24 06:50:17;;;;;;;12.13;1.55;;;;;;;9.06;100.00;100406.94;5031098;28;20827;-83
2024/01/24 06:52:44;;;;;;;5.10;1.90;;;;;;;9.08;100.00;100436.84;5031832;28;20052;-83
2024/01/24 06:55:11;;;;;;;7.80;2.45;;;;;;;9.08;100.00;100436.84;5032012;28;20847;-83
2024/01/24 06:57:38;;;;;;;10.73;2.38;;;;;;;9.10;100.00;100420.81;5008242;28;20123;-82
2024/01/24 07:00:05;;;;;;;4.72;1.77;;;;;;;9.09;100.00;100404.06;5060052;28;20056;-82
2024/01/24 07:02:34;;;;;;;7.05;1.95;;;;;;;9.13;100.00;100413.50;5041103;28;20041;-83
2024/01/24 07:05:03;;;;;;;13.57;1.80;;;;;;;9.12;100.00;100397.69;5032246;28;20131;-83
2024/01/24 07:07:30;;;;;;;10.50;2.00;;;;;;;9.13;100.00;100409.97;5033754;28;20068;-83
2024/01/24 07:09:57;;;;;;;5.85;1.50;;;;;;;9.14;100.00;100417.00;5036371;28;20068;-82
2024/01/24 07:12:23;;;;;;;7.43;1.73;;;;;;;9.14;100.00;100379.88;5032845;28;20045;-82
2024/01/24 07:14:50;;;;;;;4.28;1.70;;;;;;;9.16;100.00;100382.41;5031285;28;20058;-82
2024/01/24 07:17:19;;;;;;;5.90;1.85;;;;;;;9.20;100.00;100413.03;5051943;28;20043;-84
2024/01/24 07:19:46;;;;;;;4.25;2.13;;;;;;;9.21;100.00;100401.47;5028412;28;20067;-84
2024/01/24 07:22:15;;;;;;;3.55;1.50;;;;;;;9.23;100.00;100420.75;5033296;28;20041;-84
2024/01/24 07:24:44;;;;;;;3.88;1.25;;;;;;;9.22;100.00;100443.75;5006611;28;20048;-84
2024/01/24 07:27:11;;;;;;;6.20;1.98;;;;;;;9.22;100.00;100450.88;5031380;28;20040;-84
2024/01/24 07:29:38;;;;;;;3.75;1.20;;;;;;;9.22;100.00;100446.41;5002408;28;20065;-84
2024/01/24 07:32:05;;;;;;;11.73;4.60;;;;;;;9.27;100.00;100427.53;5039923;28;20094;-82
2024/01/24 07:34:32;;;;;;;12.95;3.03;;;;;;;9.30;100.00;100436.09;5033833;28;20044;-86
2024/01/24 07:36:59;;;;;;;11.25;3.00;;;;;;;9.30;100.00;100452.00;5014206;28;20403;-84
2024/01/24 07:39:28;;;;;;;5.05;1.73;;;;;;;9.31;100.00;100442.22;5035692;28;20049;-84
2024/01/24 07:41:55;;;;;;;8.05;2.25;;;;;;;9.34;100.00;100440.22;5037986;28;20030;-83
2024/01/24 07:44:23;;;;;;;10.07;1.85;;;;;;;9.34;100.00;100442.03;5013896;28;20568;-82
2024/01/24 07:46:49;;;;;;;5.63;2.17;;;;;;;9.40;100.00;100444.22;5031783;28;20487;-83
2024/01/24 07:49:17;;;;;;;10.63;2.33;;;;;;;9.40;100.00;100443.38;5015740;28;20052;-82
2024/01/24 07:51:46;;;;;;;8.40;2.78;;;;;;;9.39;100.00;100465.53;5027992;28;20419;-82
2024/01/24 07:54:14;;;;;;;4.25;2.78;;;;;;;9.39;100.00;100465.53;5007814;28;20037;-84
2024/01/24 07:56:40;;;;;;;5.15;2.17;;;;;;;9.41;100.00;100472.41;5030562;28;20053;-84
2024/01/24 07:59:08;;;;;;;8.45;2.05;;;;;;;9.42;100.00;100476.75;5015828;28;20527;-83
2024/01/24 08:01:36;;;;;;;4.97;1.80;;;;;;;9.42;100.00;100490.00;5059773;28;20095;-82
2024/01/24 08:04:03;;;;;;;8.02;1.80;;;;;;;9.44;100.00;100487.22;4993346;28;20052;-81
2024/01/24 08:06:30;;;;;;;9.23;2.55;;;;;;;9.41;100.00;100490.94;5031266;28;20059;-83
2024/01/24 08:08:57;;;;;;;4.07;1.92;;;;;;;9.46;100.00;100466.75;5027659;28;20441;-83
2024/01/24 08:11:24;;;;;;;9.18;2.33;;;;;;;9.49;100.00;100475.34;5047418;28;20484;-82
2024/01/24 08:13:52;;;;;;;6.68;2.20;;;;;;;9.47;100.00;100464.00;5028301;28;20141;-84
2024/01/24 08:16:21;;;;;;;10.40;2.38;;;;;;;9.48;100.00;100488.72;5031009;28;20041;-84
2024/01/24 08:18:48;;;;;;;6.97;1.80;;;;;;;9.54;100.00;100478.50;5031623;28;20037;-84
2024/01/24 08:21:17;;;;;;;34.38;8.15;;;;;;;9.48;100.00;100463.03;5028914;28;20053;-83
2024/01/24 08:23:44;;;;;;;10.90;2.15;;;;;;;9.50;100.00;100461.13;5030290;28;20068;-84
2024/01/24 08:26:17;;;;;;;;;;;;;;;9.45;100.00;100459.78;5058980;28;20057;-81
2024/01/24 08:28:43;;;;;;;10.32;1.85;;;;;;;9.48;100.00;100455.09;5048336;28;19956;-82
2024/01/24 08:31:13;;;;;;;5.00;2.42;;;;;;;9.48;100.00;100457.75;5063406;28;20090;-82
2024/01/24 08:33:40;;;;;;;7.22;2.97;;;;;;;9.51;100.00;100446.91;5020625;28;20053;-83
2024/01/24 08:36:07;;;;;;;6.70;2.35;;;;;;;9.55;100.00;100450.19;5012355;28;20048;-82
2024/01/24 08:38:34;;;;;;;3.25;2.20;;;;;;;9.55;100.00;100466.09;5032156;28;20077;-81
2024/01/24 08:41:01;;;;;;;7.15;2.28;;;;;;;9.62;100.00;100464.69;5027931;28;20042;-82
2024/01/24 08:43:28;;;;;;;5.85;2.38;;;;;;;9.63;100.00;100453.09;5029580;28;20048;-82
2024/01/24 08:45:55;;;;;;;4.90;2.83;;;;;;;9.63;100.00;100457.56;5012342;28;20041;-82
2024/01/24 08:48:22;;;;;;;6.40;2.60;;;;;;;9.65;100.00;100469.75;5047025;28;20715;-83
2024/01/24 08:50:49;;;;;;;13.13;2.80;;;;;;;9.64;100.00;100483.13;5031716;28;20041;-83
2024/01/24 08:53:16;;;;;;;5.20;2.65;;;;;;;9.61;100.00;100454.19;5012810;28;20037;-83
2024/01/24 08:55:43;;;;;;;2.92;1.88;;;;;;;9.68;100.00;100488.09;5029278;28;20123;-82
2024/01/24 08:58:10;;;;;;;4.70;2.40;;;;;;;9.71;100.00;100485.19;5046549;28;20056;-84
2024/01/24 09:00:38;;;;;;;4.63;2.25;;;;;;;9.70;100.00;100518.00;5036617;28;20049;-84
2024/01/24 09:03:05;;;;;;;3.97;2.15;;;;;;;9.72;100.00;100523.19;5031620;28;20049;-82
2024/01/24 09:05:32;;;;;;;4.68;2.20;;;;;;;9.83;100.00;100548.91;5017621;28;20493;-82
2024/01/24 09:07:59;;;;;;;5.22;2.38;;;;;;;9.79;100.00;100532.38;5033037;28;20048;-84
2024/01/24 09:10:26;;;;;;;4.97;2.20;;;;;;;9.80;100.00;100541.19;5013204;28;20056;-81
2024/01/24 09:12:54;;;;;;;11.85;3.10;;;;;;;9.79;100.00;100537.66;5027254;28;20091;-81
2024/01/24 09:15:26;;;;;;;2.92;1.95;;;;;;;9.77;100.00;100540.47;4990797;28;20506;-84
2024/01/24 09:18:13;;;;;;;2.85;1.90;;;;;;;9.80;100.00;100547.34;4915490;28;20059;-85
2024/01/24 09:20:55;;;;;;;2.47;1.77;;;;;;;9.80;100.00;100542.03;5044241;28;20523;-85
2024/01/24 09:23:22;;;;;;;3.25;1.95;;;;;;;9.79;100.00;100558.88;5030767;28;20083;-84
2024/01/24 09:25:49;;;;;;;5.13;2.00;;;;;;;9.81;100.00;100553.47;5031431;28;20087;-83
2024/01/24 09:28:16;;;;;;;6.38;2.30;;;;;;;9.80;100.00;100544.69;5027786;28;20105;-83
2024/01/24 09:30:42;;;;;;;4.32;2.95;;;;;;;9.82;100.00;100545.44;5026153;28;20049;-83
2024/01/24 09:33:09;;;;;;;7.43;2.35;;;;;;;9.83;100.00;100541.81;5024908;28;20091;-81
2024/01/24 09:35:37;;;;;;;8.38;3.20;;;;;;;9.87;100.00;100551.25;5046979;28;20053;-84
2024/01/24 09:38:04;;;;;;;5.93;2.25;;;;;;;9.84;100.00;100561.22;5014051;28;20049;-83
2024/01/24 09:40:31;;;;;;;6.50;2.60;;;;;;;9.86;100.00;100559.28;5032373;28;20106;-82
2024/01/24 09:43:00;;;;;;;3.97;2.08;;;;;;;9.87;100.00;100558.31;5015097;28;20068;-82
2024/01/24 09:45:28;;;;;;;5.78;1.92;;;;;;;9.85;100.00;100558.47;5067744;28;20423;-83
2024/01/24 09:47:57;;;;;;;4.50;2.10;;;;;;;9.86;100.00;100559.28;5044243;28;20046;-83
2024/01/24 09:50:24;;;;;;;4.95;2.22;;;;;;;9.89;100.00;100567.03;5001298;28;20410;-81
2024/01/24 09:52:51;;;;;;;6.03;2.13;;;;;;;9.89;100.00;100586.44;5035112;28;20128;-82
2024/01/24 09:55:21;;;;;;;5.78;2.05;;;;;;;9.90;100.00;100574.88;5033057;28;20042;-82
2024/01/24 09:57:48;;;;;;;5.13;1.52;;;;;;;9.91;100.00;100559.81;5020982;28;20044;-83
2024/01/24 10:00:15;;;;;;;4.30;1.40;;;;;;;9.92;100.00;100580.94;5034877;28;20060;-82
2024/01/24 10:02:46;;;;;;;7.03;1.10;;;;;;;9.97;100.00;100588.53;5024680;28;20041;-83
2024/01/24 10:05:20;;;;;;;6.32;1.67;;;;;;;9.99;100.00;100576.00;5037038;28;20511;-84
2024/01/24 10:07:47;;;;;;;1.30;1.17;;;;;;;10.04;100.00;100584.47;5033831;28;20106;-83
2024/01/24 10:10:18;;;;;;;2.15;1.10;;;;;;;10.07;100.00;100592.19;5033515;28;20054;-82
2024/01/24 10:12:45;;;;;;;2.70;1.30;;;;;;;10.08;100.00;100596.56;5021640;28;20076;-82
2024/01/24 10:15:12;;;;;;;3.45;1.05;;;;;;;10.16;100.00;100609.25;5031250;28;20049;-82
2024/01/24 10:17:41;;;;;;;3.08;0.85;;;;;;;10.16;100.00;100602.13;5034911;28;20508;-82
2024/01/24 10:20:11;;;;;;;1.80;0.80;;;;;;;10.17;100.00;100610.94;5020360;28;20052;-81
2024/01/24 10:22:45;;;;;;;5.63;1.17;;;;;;;10.13;100.00;100604.19;5014664;28;20053;-83
2024/01/24 10:25:13;;;;;;;1.88;1.40;;;;;;;10.16;100.00;100612.75;5047272;28;20045;-83
2024/01/24 10:27:41;;;;;;;2.90;0.90;;;;;;;10.18;100.00;100620.59;5032268;28;20126;-83
2024/01/24 10:30:11;;;;;;;4.90;1.00;;;;;;;10.22;100.00;100624.69;5038184;28;20475;-83
2024/01/24 10:32:38;;;;;;;6.03;1.48;;;;;;;10.22;100.00;100612.28;5008933;28;20057;-83
2024/01/24 10:35:06;;;;;;;10.50;3.25;;;;;;;10.32;100.00;100619.59;5031170;28;20099;-82
2024/01/24 10:37:33;;;;;;;3.95;1.00;;;;;;;10.28;100.00;100584.47;5015129;28;20037;-82
2024/01/24 10:40:05;;;;;;;5.88;2.10;;;;;;;10.32;100.00;100601.00;5028112;28;20042;-82
2024/01/24 10:42:38;;;;;;;2.35;1.20;;;;;;;10.36;100.00;100607.78;5032099;28;20061;-82
2024/01/24 10:45:06;;;;;;;5.07;1.17;;;;;;;10.39;100.00;100612.88;5063008;28;20118;-82
2024/01/24 10:47:34;;;;;;;9.30;1.38;;;;;;;10.40;100.00;100615.38;5021375;28;20075;-83
2024/01/24 10:50:03;;;;;;;6.03;1.42;;;;;;;10.43;100.00;100609.00;5049121;28;20123;-84
2024/01/24 10:52:34;;;;;;;2.47;1.10;;;;;;;10.46;100.00;100616.75;5035702;28;20037;-84
2024/01/24 10:55:07;;;;;;;15.95;4.90;;;;;;;10.48;100.00;100604.22;5005413;28;20107;-84
2024/01/24 10:57:35;;;;;;;8.63;1.80;;;;;;;10.53;100.00;100601.19;5063851;28;20503;-83
2024/01/24 11:00:05;;;;;;;3.63;1.20;;;;;;;10.53;100.00;100586.13;5031708;28;20048;-84
2024/01/24 11:02:32;;;;;;;7.80;1.75;;;;;;;10.56;100.00;100612.44;5029100;28;20052;-84
2024/01/24 11:05:03;;;;;;;8.48;1.55;;;;;;;10.58;100.00;100614.97;5017129;28;20045;-84
2024/01/24 11:07:58;;;;;;;9.13;1.63;;;;;;;10.55;100.00;100628.47;5030060;28;20049;-84
2024/01/24 11:10:40;;;;;;;4.35;1.50;;;;;;;10.58;100.00;100630.91;5012729;28;20045;-85
2024/01/24 11:13:07;;;;;;;4.40;1.45;;;;;;;10.81;100.00;100645.09;5049818;28;20041;-84
2024/01/24 11:15:35;;;;;;;6.50;1.17;;;;;;;10.70;100.00;100627.31;5035392;28;20761;-84
2024/01/24 11:18:21;;;;;;;6.90;1.52;;;;;;;10.72;100.00;100629.88;5002824;28;20111;-84
2024/01/24 11:20:56;;;;;;;9.27;1.45;;;;;;;10.74;100.00;100638.56;5017513;28;20815;-85